Time;durP1;ratioP1;P1;durP2;ratioP2;P2;SDS_P1;SDS_P2;PMS_P1;PMS_P2;Temp;Humidity;BMP_temperature;BMP_pressure;BME280_temperature;BME280_humidity;BME280_pressure;Samples;Min_cycle;Max_cycle;Signal;HPM_P1;HPM_P2
2021/07/18 00:01:39;;;;;;;13.93;5.70;;;;;;;27.21;100.00;100312.44;5008399;28;20210;-67
2021/07/18 00:04:04;;;;;;;12.40;6.67;;;;;;;27.19;100.00;100315.34;5009017;28;20668;-69
2021/07/18 00:06:31;;;;;;;8.90;5.57;;;;;;;27.15;100.00;100313.34;5009837;28;20418;-68
2021/07/18 00:08:56;;;;;;;9.33;5.90;;;;;;;27.01;100.00;100320.69;5009224;28;20422;-68
2021/07/18 00:11:22;;;;;;;13.03;6.97;;;;;;;26.71;100.00;100321.31;5008817;28;20182;-66
2021/07/18 00:13:47;;;;;;;9.20;5.90;;;;;;;26.57;100.00;100319.75;5008418;28;20206;-69
2021/07/18 00:16:13;;;;;;;9.90;6.70;;;;;;;26.44;100.00;100323.34;5007104;28;20733;-68
2021/07/18 00:18:38;;;;;;;11.27;7.47;;;;;;;26.22;100.00;100327.38;5008443;28;20236;-67
2021/07/18 00:21:04;;;;;;;16.17;7.17;;;;;;;26.03;100.00;100322.94;5008261;28;20185;-68
2021/07/18 00:23:29;;;;;;;12.20;7.20;;;;;;;25.90;100.00;100316.56;4981625;28;20185;-68
2021/07/18 00:25:55;;;;;;;18.10;7.70;;;;;;;25.83;100.00;100320.31;5009149;28;20278;-68
2021/07/18 00:28:20;;;;;;;12.70;7.43;;;;;;;25.75;100.00;100325.94;5009132;28;20197;-69
2021/07/18 00:30:46;;;;;;;12.87;8.73;;;;;;;25.66;100.00;100328.00;5009014;28;20201;-68
2021/07/18 00:33:11;;;;;;;14.33;6.87;;;;;;;25.52;100.00;100321.81;5009426;28;20526;-69
2021/07/18 00:35:37;;;;;;;12.70;8.10;;;;;;;25.46;100.00;100328.84;5007815;28;20202;-67
2021/07/18 00:38:07;;;;;;;13.70;7.40;;;;;;;25.36;100.00;100327.66;4993903;28;20196;-66
2021/07/18 00:40:34;;;;;;;19.13;8.17;;;;;;;25.30;100.00;100325.78;5013902;28;20178;-66
2021/07/18 00:43:00;;;;;;;12.30;7.57;;;;;;;25.27;100.00;100334.28;5009282;28;20409;-66
2021/07/18 00:45:26;;;;;;;11.73;6.70;;;;;;;25.28;100.00;100334.06;5009273;28;20431;-65
2021/07/18 00:47:53;;;;;;;10.93;7.23;;;;;;;25.17;100.00;100324.78;5009380;28;20181;-66
2021/07/18 00:50:18;;;;;;;15.00;7.80;;;;;;;25.04;100.00;100323.94;5008998;28;20170;-68
2021/07/18 00:52:44;;;;;;;16.40;7.87;;;;;;;24.99;100.00;100319.16;5009052;28;20839;-68
2021/07/18 00:55:11;;;;;;;10.93;6.70;;;;;;;25.00;100.00;100319.97;5008611;28;20208;-69
2021/07/18 00:57:38;;;;;;;13.00;7.20;;;;;;;24.97;100.00;100313.16;5008795;28;20166;-67
2021/07/18 01:00:07;;;;;;;12.13;7.43;;;;;;;24.90;100.00;100323.09;5008736;28;20405;-68
2021/07/18 01:02:33;;;;;;;20.10;7.97;;;;;;;24.86;100.00;100313.75;5008209;28;20412;-67
2021/07/18 01:04:59;;;;;;;9.80;7.30;;;;;;;24.91;100.00;100314.00;5008283;28;20955;-69
2021/07/18 01:07:25;;;;;;;10.93;6.83;;;;;;;24.90;100.00;100313.16;5008529;28;20360;-70
2021/07/18 01:09:52;;;;;;;11.10;7.60;;;;;;;24.96;100.00;100303.44;5007266;28;20927;-68
2021/07/18 01:12:18;;;;;;;15.90;7.97;;;;;;;24.93;100.00;100306.53;5008040;28;20221;-67
2021/07/18 01:14:44;;;;;;;13.70;7.13;;;;;;;24.93;100.00;100303.84;5008498;28;20457;-69
2021/07/18 01:17:11;;;;;;;14.50;7.90;;;;;;;24.83;100.00;100304.28;5006829;28;20217;-68
2021/07/18 01:19:39;;;;;;;16.70;7.87;;;;;;;24.89;100.00;100297.25;5012788;28;20417;-70
2021/07/18 01:22:05;;;;;;;22.20;8.43;;;;;;;24.94;100.00;100304.66;5016384;28;20421;-69
2021/07/18 01:24:31;;;;;;;11.87;7.30;;;;;;;24.91;100.00;100296.00;5007495;28;20479;-69
2021/07/18 01:26:58;;;;;;;11.03;6.83;;;;;;;24.97;100.00;100305.09;5008606;28;20508;-69
2021/07/18 01:29:25;;;;;;;13.53;7.80;;;;;;;24.95;100.00;100299.13;5008118;28;20448;-69
2021/07/18 01:31:51;;;;;;;14.87;7.97;;;;;;;25.03;100.00;100301.63;5008679;28;20488;-68
2021/07/18 01:34:17;;;;;;;16.27;7.30;;;;;;;24.99;100.00;100304.88;5007384;28;21154;-68
2021/07/18 01:36:42;;;;;;;12.10;7.10;;;;;;;24.97;100.00;100307.78;5007508;28;20198;-69
2021/07/18 01:39:11;;;;;;;9.90;7.73;;;;;;;24.79;100.00;100311.09;5008435;28;20432;-69
2021/07/18 01:41:37;;;;;;;13.67;8.13;;;;;;;24.70;100.00;100308.81;5008270;28;20173;-71
2021/07/18 01:44:03;;;;;;;14.20;6.83;;;;;;;24.68;100.00;100311.69;5007837;28;20430;-69
2021/07/18 01:46:30;;;;;;;9.23;7.53;;;;;;;24.70;100.00;100308.81;5011028;28;20170;-68
2021/07/18 01:48:55;;;;;;;12.20;7.90;;;;;;;24.85;100.00;100309.44;5014125;28;20401;-69
2021/07/18 01:51:22;;;;;;;14.47;7.37;;;;;;;24.92;100.00;100303.03;5014900;28;20436;-69
2021/07/18 01:53:53;;;;;;;14.90;7.70;;;;;;;24.88;100.00;100309.03;5012845;28;20170;-68
2021/07/18 01:56:19;;;;;;;17.07;7.90;;;;;;;24.75;100.00;100309.03;5013664;28;20416;-69
2021/07/18 01:58:50;;;;;;;11.70;7.77;;;;;;;24.86;100.00;100305.69;5014263;28;20817;-69
2021/07/18 02:01:16;;;;;;;14.77;8.03;;;;;;;24.85;100.00;100306.75;5014249;28;20456;-69
2021/07/18 02:03:43;;;;;;;12.87;7.90;;;;;;;24.69;100.00;100304.47;5013972;28;20474;-69
2021/07/18 02:06:10;;;;;;;13.87;7.87;;;;;;;24.76;100.00;100306.13;5014556;28;20486;-68
2021/07/18 02:08:35;;;;;;;13.60;8.33;;;;;;;24.75;100.00;100299.09;5013048;28;20923;-70
2021/07/18 02:11:01;;;;;;;11.30;7.30;;;;;;;24.81;100.00;100302.81;5015669;28;20482;-69
2021/07/18 02:13:27;;;;;;;13.10;7.70;;;;;;;24.72;100.00;100304.91;5016984;28;20365;-69
2021/07/18 02:15:52;;;;;;;13.10;7.30;;;;;;;24.74;100.00;100310.06;5016191;28;20217;-70
2021/07/18 02:18:18;;;;;;;11.97;8.27;;;;;;;24.82;100.00;100316.06;5017322;28;20170;-70
2021/07/18 02:20:43;;;;;;;14.10;8.40;;;;;;;24.75;100.00;100312.53;5016341;28;20182;-69
2021/07/18 02:23:09;;;;;;;16.23;8.00;;;;;;;24.63;100.00;100312.31;5016785;28;20188;-68
2021/07/18 02:25:34;;;;;;;15.87;7.90;;;;;;;24.61;100.00;100319.75;5017351;28;20166;-69
2021/07/18 02:28:00;;;;;;;10.63;8.00;;;;;;;24.63;100.00;100323.06;5017178;28;20210;-69
2021/07/18 02:30:27;;;;;;;16.97;8.93;;;;;;;24.56;100.00;100329.44;5015670;28;20177;-69
2021/07/18 02:32:53;;;;;;;12.87;9.10;;;;;;;24.48;100.00;100324.25;5016726;28;20174;-70
2021/07/18 02:35:20;;;;;;;19.73;9.40;;;;;;;24.42;100.00;100323.25;5016325;28;20859;-67
2021/07/18 02:37:46;;;;;;;19.17;8.87;;;;;;;24.44;100.00;100331.09;5015877;28;20260;-68
2021/07/18 02:40:15;;;;;;;14.73;9.53;;;;;;;24.38;100.00;100340.78;5016892;28;20414;-68
2021/07/18 02:42:40;;;;;;;16.90;9.37;;;;;;;24.40;100.00;100332.50;5016132;28;20170;-69
2021/07/18 02:45:08;;;;;;;20.20;9.87;;;;;;;24.39;100.00;100336.22;5016661;28;20416;-69
2021/07/18 02:47:34;;;;;;;18.33;9.70;;;;;;;24.36;100.00;100345.53;5016490;28;20266;-70
2021/07/18 02:49:59;;;;;;;28.67;9.57;;;;;;;24.31;100.00;100347.94;5016094;28;20515;-70
2021/07/18 02:52:25;;;;;;;11.10;9.70;;;;;;;24.43;100.00;100342.88;5016084;28;20241;-69
2021/07/18 02:54:51;;;;;;;16.93;10.47;;;;;;;24.56;100.00;100333.00;5016429;28;20456;-70
2021/07/18 02:57:19;;;;;;;12.70;8.83;;;;;;;24.68;100.00;100329.69;5015308;28;20166;-69
2021/07/18 02:59:44;;;;;;;11.90;9.57;;;;;;;24.83;100.00;100330.31;4986388;28;20632;-69
2021/07/18 03:02:10;;;;;;;13.53;8.83;;;;;;;24.97;100.00;100336.53;5013584;28;20419;-68
2021/07/18 03:04:35;;;;;;;12.33;8.90;;;;;;;25.01;100.00;100338.59;5013666;28;20611;-69
2021/07/18 03:07:01;;;;;;;15.03;11.27;;;;;;;25.13;100.00;100338.84;5013339;28;20182;-69
2021/07/18 03:09:27;;;;;;;11.63;9.17;;;;;;;25.23;100.00;100328.47;5013540;28;20221;-69
2021/07/18 03:11:53;;;;;;;12.40;9.77;;;;;;;25.27;100.00;100334.28;5012992;28;20571;-67
2021/07/18 03:14:19;;;;;;;16.17;9.53;;;;;;;25.32;100.00;100337.19;5013190;28;20202;-69
2021/07/18 03:16:45;;;;;;;20.87;11.70;;;;;;;25.26;100.00;100346.09;5012975;28;20829;-70
2021/07/18 03:19:12;;;;;;;14.23;10.37;;;;;;;25.32;100.00;100340.69;5008233;28;20169;-69
2021/07/18 03:21:37;;;;;;;16.17;9.60;;;;;;;25.40;100.00;100343.16;5004728;28;20425;-69
2021/07/18 03:24:04;;;;;;;14.60;10.20;;;;;;;25.33;100.00;100347.72;5013169;28;20409;-68
2021/07/18 03:26:29;;;;;;;22.37;11.33;;;;;;;25.39;100.00;100343.34;5013285;28;20563;-69
2021/07/18 03:28:55;;;;;;;15.13;11.43;;;;;;;25.34;100.00;100346.69;5012230;28;21178;-68
2021/07/18 03:31:20;;;;;;;15.93;10.50;;;;;;;25.28;100.00;100350.22;5012946;28;20158;-70
2021/07/18 03:33:46;;;;;;;15.40;11.87;;;;;;;25.40;100.00;100348.56;5012525;28;20213;-69
2021/07/18 03:36:11;;;;;;;13.90;11.00;;;;;;;25.48;100.00;100354.75;5013028;28;20170;-69
2021/07/18 03:38:37;;;;;;;17.23;10.90;;;;;;;25.49;100.00;100351.84;5012200;28;20205;-70
2021/07/18 03:41:03;;;;;;;16.53;11.33;;;;;;;25.48;100.00;100347.50;5020110;28;20707;-68
2021/07/18 03:43:28;;;;;;;18.30;12.37;;;;;;;25.58;100.00;100352.44;5012886;28;20217;-70
2021/07/18 03:45:54;;;;;;;17.80;11.60;;;;;;;25.65;100.00;100359.47;5012814;28;20189;-69
2021/07/18 03:48:19;;;;;;;14.80;12.00;;;;;;;25.74;100.00;100360.09;5012620;28;20253;-69
2021/07/18 03:50:45;;;;;;;15.30;12.50;;;;;;;25.79;100.00;100364.88;5012911;28;20159;-68
2021/07/18 03:53:10;;;;;;;18.77;12.73;;;;;;;25.86;100.00;100355.72;5012977;28;20201;-68
2021/07/18 03:55:35;;;;;;;14.13;12.63;;;;;;;25.94;100.00;100351.97;5012025;28;20205;-67
2021/07/18 03:58:02;;;;;;;14.30;12.00;;;;;;;26.04;100.00;100352.34;4997412;28;20175;-69
2021/07/18 04:00:28;;;;;;;22.27;13.03;;;;;;;26.00;100.00;100357.34;5010385;28;20158;-68
2021/07/18 04:02:53;;;;;;;20.13;13.13;;;;;;;26.13;100.00;100352.91;5012039;28;20405;-69
2021/07/18 04:05:19;;;;;;;18.77;12.13;;;;;;;26.26;100.00;100348.31;5012401;28;20177;-68
2021/07/18 04:07:44;;;;;;;18.60;12.80;;;;;;;26.27;100.00;100343.75;5012242;28;20162;-68
2021/07/18 04:10:10;;;;;;;21.73;13.77;;;;;;;26.29;100.00;100350.56;5011887;28;20185;-68
2021/07/18 04:12:36;;;;;;;17.43;13.47;;;;;;;26.33;100.00;100345.56;5012051;28;20194;-68
2021/07/18 04:15:01;;;;;;;14.93;11.93;;;;;;;26.39;100.00;100350.16;5011418;28;20453;-68
2021/07/18 04:17:27;;;;;;;15.37;12.87;;;;;;;26.54;100.00;100355.25;5008911;28;20507;-68
2021/07/18 04:19:53;;;;;;;15.53;12.40;;;;;;;26.51;100.00;100353.78;5001881;28;20648;-68
2021/07/18 04:22:18;;;;;;;21.10;11.57;;;;;;;26.56;100.00;100350.47;5011756;28;20202;-68
2021/07/18 04:24:44;;;;;;;17.20;11.60;;;;;;;26.58;100.00;100348.38;5011955;28;20167;-68
2021/07/18 04:27:09;;;;;;;20.20;11.70;;;;;;;26.47;100.00;100355.28;5012022;28;20182;-68
2021/07/18 04:29:35;;;;;;;11.90;10.60;;;;;;;26.33;100.00;100360.91;5011757;28;20173;-69
2021/07/18 04:32:00;;;;;;;15.30;10.60;;;;;;;26.33;100.00;100353.66;5009193;28;20209;-68
2021/07/18 04:34:26;;;;;;;14.30;10.60;;;;;;;26.34;100.00;100352.63;5011195;28;20217;-70
2021/07/18 04:36:51;;;;;;;17.77;11.10;;;;;;;26.34;100.00;100359.88;5011152;28;20244;-69
2021/07/18 04:39:17;;;;;;;21.97;11.63;;;;;;;26.37;100.00;100357.56;4994629;28;20182;-69
2021/07/18 04:41:42;;;;;;;17.23;11.90;;;;;;;26.42;100.00;100365.88;5011218;28;20576;-68
2021/07/18 04:44:08;;;;;;;14.27;11.83;;;;;;;26.58;100.00;100372.63;5011564;28;20181;-70
2021/07/18 04:46:34;;;;;;;16.43;10.90;;;;;;;26.60;100.00;100373.25;5010713;28;20679;-68
2021/07/18 04:48:59;;;;;;;11.87;10.13;;;;;;;26.58;100.00;100372.63;5011350;28;20170;-70
2021/07/18 04:51:25;;;;;;;14.40;10.77;;;;;;;26.76;100.00;100369.22;5010954;28;20588;-68
2021/07/18 04:53:50;;;;;;;15.90;11.40;;;;;;;26.90;100.00;100357.25;5010185;28;20162;-69
2021/07/18 04:56:16;;;;;;;16.93;11.13;;;;;;;26.94;100.00;100363.06;5010986;28;20197;-68
2021/07/18 04:58:42;;;;;;;17.23;10.73;;;;;;;26.96;100.00;100363.66;5009630;28;20246;-71
2021/07/18 05:01:08;;;;;;;21.60;12.73;;;;;;;27.12;100.00;100370.41;5010700;28;20474;-69
2021/07/18 05:03:34;;;;;;;14.67;11.30;;;;;;;27.16;100.00;100372.47;5011215;28;20170;-68
2021/07/18 05:06:00;;;;;;;18.70;10.83;;;;;;;27.17;100.00;100378.69;5011100;28;20620;-70
2021/07/18 05:08:26;;;;;;;31.63;13.37;;;;;;;27.19;100.00;100363.91;5011381;28;20402;-67
2021/07/18 05:10:52;;;;;;;14.13;11.60;;;;;;;27.26;100.00;100366.56;5011168;28;20402;-68
2021/07/18 05:13:17;;;;;;;13.43;10.83;;;;;;;27.36;100.00;100366.91;5010057;28;20178;-67
2021/07/18 05:15:43;;;;;;;14.13;12.10;;;;;;;27.47;100.00;100362.63;5010917;28;20256;-70
2021/07/18 05:18:10;;;;;;;17.00;11.40;;;;;;;27.60;100.00;100363.34;5009429;28;20178;-70
2021/07/18 05:20:36;;;;;;;19.33;11.63;;;;;;;27.66;100.00;100361.63;5009463;28;20198;-69
2021/07/18 05:23:01;;;;;;;28.70;13.30;;;;;;;27.73;100.00;100356.97;5010528;28;20490;-70
2021/07/18 05:25:28;;;;;;;16.33;11.97;;;;;;;27.84;100.00;100361.66;5010036;28;20374;-70
2021/07/18 05:27:54;;;;;;;20.37;13.00;;;;;;;28.06;100.00;100363.91;5033144;28;20224;-67
2021/07/18 05:30:19;;;;;;;15.80;13.20;;;;;;;28.30;100.00;100362.16;5010469;28;20413;-69
2021/07/18 05:32:45;;;;;;;20.70;14.67;;;;;;;28.46;100.00;100362.34;5010383;28;20175;-69
2021/07/18 05:35:11;;;;;;;17.80;13.60;;;;;;;28.63;100.00;100359.00;5010314;28;20225;-70
2021/07/18 05:37:37;;;;;;;15.30;13.53;;;;;;;28.67;100.00;100352.06;5002733;28;20167;-69
2021/07/18 05:40:05;;;;;;;16.23;13.30;;;;;;;28.79;100.00;100355.63;5007846;28;20443;-70
2021/07/18 05:42:31;;;;;;;18.43;12.67;;;;;;;28.93;100.00;100361.69;5010514;28;20413;-69
2021/07/18 05:44:58;;;;;;;19.93;14.80;;;;;;;29.00;100.00;100359.69;5009085;28;20417;-69
2021/07/18 05:47:25;;;;;;;23.60;14.40;;;;;;;29.04;100.00;100360.06;5010603;28;20181;-69
2021/07/18 05:49:51;;;;;;;20.10;13.57;;;;;;;29.14;100.00;100354.91;5009808;28;20409;-71
2021/07/18 05:52:16;;;;;;;17.63;13.83;;;;;;;29.17;100.00;100357.13;5009923;28;20420;-70
2021/07/18 05:54:42;;;;;;;21.97;13.73;;;;;;;29.21;100.00;100361.03;5010999;28;20453;-70
2021/07/18 05:57:07;;;;;;;16.90;13.30;;;;;;;29.32;100.00;100370.19;5010370;28;20178;-72
2021/07/18 05:59:33;;;;;;;16.47;14.00;;;;;;;29.43;100.00;100361.28;5010181;28;20170;-71
2021/07/18 06:01:59;;;;;;;20.17;13.50;;;;;;;29.47;100.00;100362.44;5009832;28;20178;-68
2021/07/18 06:04:24;;;;;;;16.50;13.10;;;;;;;29.47;100.00;100360.56;5002793;28;20185;-76
2021/07/18 06:06:50;;;;;;;24.07;15.60;;;;;;;29.56;100.00;100364.59;5010369;28;20231;-77
2021/07/18 06:09:16;;;;;;;15.30;13.70;;;;;;;29.58;100.00;100358.94;5009517;28;20166;-74
2021/07/18 06:11:42;;;;;;;19.33;13.80;;;;;;;29.74;100.00;100358.22;5010866;28;20895;-75
2021/07/18 06:14:07;;;;;;;16.10;12.63;;;;;;;29.78;100.00;100353.97;5011010;28;20240;-75
2021/07/18 06:16:33;;;;;;;20.03;13.50;;;;;;;29.82;100.00;100351.59;5009275;28;20597;-75
2021/07/18 06:18:58;;;;;;;16.23;13.50;;;;;;;29.86;100.00;100355.50;5010285;28;20194;-72
2021/07/18 06:21:24;;;;;;;15.10;11.70;;;;;;;29.93;100.00;100355.34;5004500;28;20537;-76
2021/07/18 06:23:49;;;;;;;19.17;13.07;;;;;;;29.89;100.00;100349.56;5003517;28;20185;-73
2021/07/18 06:26:15;;;;;;;15.30;11.77;;;;;;;30.07;100.00;100356.72;5003673;28;20193;-76
2021/07/18 06:28:41;;;;;;;14.93;12.27;;;;;;;30.15;100.00;100355.53;5010172;28;20620;-77
2021/07/18 06:31:07;;;;;;;16.33;13.40;;;;;;;30.20;100.00;100358.34;5008171;28;20409;-74
2021/07/18 06:33:32;;;;;;;18.23;13.60;;;;;;;30.27;100.00;100350.91;5011269;28;20305;-76
2021/07/18 06:35:58;;;;;;;16.60;12.47;;;;;;;30.30;100.00;100363.97;5029422;28;20208;-74
2021/07/18 06:38:23;;;;;;;15.00;12.90;;;;;;;30.31;100.00;100360.22;5013380;28;20564;-77
2021/07/18 06:40:49;;;;;;;15.10;13.50;;;;;;;30.30;100.00;100367.50;5013885;28;20227;-78
2021/07/18 06:43:14;;;;;;;17.43;12.10;;;;;;;30.33;100.00;100366.22;5013890;28;20174;-74
2021/07/18 06:45:40;;;;;;;15.37;12.97;;;;;;;30.24;100.00;100356.81;5013582;28;20162;-74
2021/07/18 06:48:06;;;;;;;17.83;14.60;;;;;;;30.35;100.00;100362.19;5013447;28;20174;-74
2021/07/18 06:50:32;;;;;;;20.83;13.23;;;;;;;30.33;100.00;100366.22;5013366;28;20437;-73
2021/07/18 06:52:57;;;;;;;19.40;13.40;;;;;;;30.29;100.00;100354.19;5013659;28;20350;-75
2021/07/18 06:55:23;;;;;;;29.57;14.63;;;;;;;30.39;100.00;100359.84;5013652;28;20281;-76
2021/07/18 06:57:50;;;;;;;18.63;13.17;;;;;;;30.43;100.00;100355.56;5013020;28;20256;-74
2021/07/18 07:00:16;;;;;;;18.27;14.10;;;;;;;30.35;100.00;100347.81;5013102;28;20178;-75
2021/07/18 07:02:43;;;;;;;17.13;12.90;;;;;;;30.41;100.00;100352.28;5012446;28;20844;-73
2021/07/18 07:05:09;;;;;;;21.30;13.40;;;;;;;30.47;100.00;100356.72;5013456;28;20903;-73
2021/07/18 07:07:36;;;;;;;21.93;14.33;;;;;;;30.50;100.00;100358.94;5012853;28;20448;-74
2021/07/18 07:10:02;;;;;;;15.67;14.07;;;;;;;30.50;100.00;100358.94;5012955;28;20551;-73
2021/07/18 07:12:27;;;;;;;17.47;13.87;;;;;;;30.55;100.00;100359.03;5012744;28;20409;-71
2021/07/18 07:14:53;;;;;;;17.50;14.03;;;;;;;30.62;100.00;100350.75;5012681;28;20471;-73
2021/07/18 07:17:19;;;;;;;22.00;14.10;;;;;;;30.73;100.00;100352.59;5012688;28;20640;-75
2021/07/18 07:19:44;;;;;;;23.60;13.63;;;;;;;30.67;100.00;100348.97;5012917;28;20193;-75
2021/07/18 07:22:11;;;;;;;19.40;14.73;;;;;;;30.73;100.00;100343.63;5013000;28;20620;-74
2021/07/18 07:24:36;;;;;;;20.77;14.67;;;;;;;30.84;100.00;100345.47;5012999;28;20174;-77
2021/07/18 07:27:02;;;;;;;18.57;13.67;;;;;;;30.84;100.00;100346.28;5012823;28;20529;-74
2021/07/18 07:29:27;;;;;;;21.50;15.30;;;;;;;30.91;100.00;100338.81;5011301;28;20170;-77
2021/07/18 07:31:53;;;;;;;24.73;15.53;;;;;;;30.89;100.00;100348.25;5012223;28;20177;-73
2021/07/18 07:34:18;;;;;;;22.03;15.60;;;;;;;30.96;100.00;100345.38;5012838;28;20213;-72
2021/07/18 07:36:45;;;;;;;31.30;15.73;;;;;;;30.97;100.00;100342.41;5012857;28;20186;-73
2021/07/18 07:39:11;;;;;;;21.70;14.77;;;;;;;30.98;100.00;100341.34;5012719;28;20928;-75
2021/07/18 07:41:37;;;;;;;26.33;16.97;;;;;;;31.08;100.00;100352.38;5008340;28;20179;-73
2021/07/18 07:44:02;;;;;;;18.63;14.83;;;;;;;31.20;100.00;100347.66;5000785;28;20501;-73
2021/07/18 07:46:28;;;;;;;19.13;15.00;;;;;;;31.32;100.00;100346.78;5011067;28;20245;-76
2021/07/18 07:48:54;;;;;;;18.87;13.57;;;;;;;31.45;100.00;100354.59;5012701;28;20193;-75
2021/07/18 07:51:20;;;;;;;16.00;13.17;;;;;;;31.44;100.00;100355.69;5012482;28;20170;-74
2021/07/18 07:53:46;;;;;;;14.30;12.80;;;;;;;31.46;100.00;100346.19;5012712;28;20224;-77
2021/07/18 07:56:12;;;;;;;17.43;12.77;;;;;;;31.59;100.00;100347.75;5009842;28;20511;-74
2021/07/18 07:58:38;;;;;;;16.07;11.60;;;;;;;31.58;100.00;100348.78;5009166;28;20516;-76
2021/07/18 08:01:04;;;;;;;15.50;12.43;;;;;;;31.62;100.00;100349.94;5012634;28;20227;-74
2021/07/18 08:03:29;;;;;;;19.97;11.00;;;;;;;31.72;100.00;100344.63;5012329;28;20428;-74
2021/07/18 08:05:55;;;;;;;19.80;11.73;;;;;;;31.74;100.00;100350.66;5012095;28;20697;-72
2021/07/18 08:08:21;;;;;;;14.00;10.07;;;;;;;31.81;100.00;100349.66;5007899;28;20167;-75
2021/07/18 08:10:46;;;;;;;17.77;10.70;;;;;;;31.86;100.00;100347.84;5000962;28;20414;-74
2021/07/18 08:13:12;;;;;;;14.30;9.67;;;;;;;31.94;100.00;100350.13;5012426;28;20163;-75
2021/07/18 08:15:37;;;;;;;16.70;11.37;;;;;;;31.95;100.00;100349.03;5011597;28;20201;-75
2021/07/18 08:18:03;;;;;;;14.73;11.60;;;;;;;31.92;100.00;100354.16;5012066;28;20320;-74
2021/07/18 08:20:29;;;;;;;14.43;9.57;;;;;;;32.01;100.00;100358.09;5011692;28;20173;-75
2021/07/18 08:22:56;;;;;;;10.60;9.40;;;;;;;32.07;100.00;100359.78;5011786;28;20486;-75
2021/07/18 08:25:24;;;;;;;11.60;9.80;;;;;;;32.07;100.00;100356.25;5011823;28;20657;-75
2021/07/18 08:27:51;;;;;;;14.10;9.20;;;;;;;32.24;100.00;100354.28;5012212;28;20436;-75
2021/07/18 08:30:17;;;;;;;11.80;8.97;;;;;;;32.35;100.00;100350.63;5011225;28;20413;-77
2021/07/18 08:32:43;;;;;;;12.77;9.57;;;;;;;32.41;100.00;100351.47;5011617;28;20397;-77
2021/07/18 08:35:09;;;;;;;72.27;14.67;;;;;;;32.44;100.00;100351.00;5011700;28;20476;-76
2021/07/18 08:37:36;;;;;;;12.20;7.80;;;;;;;32.45;100.00;100350.72;5011679;28;20516;-75
2021/07/18 08:40:05;;;;;;;24.43;8.73;;;;;;;32.44;100.00;100349.09;5011598;28;20401;-75
2021/07/18 08:42:31;;;;;;;11.83;8.53;;;;;;;32.49;100.00;100351.03;5011538;28;20433;-75
2021/07/18 08:44:58;;;;;;;11.10;8.80;;;;;;;32.51;100.00;100349.69;5011302;28;20504;-74
2021/07/18 08:47:24;;;;;;;10.70;7.67;;;;;;;32.61;100.00;100337.25;5011409;28;20500;-74
2021/07/18 08:49:50;;;;;;;13.60;8.17;;;;;;;32.76;100.00;100340.94;5011139;28;20437;-76
2021/07/18 08:52:20;;;;;;;9.23;8.23;;;;;;;32.91;100.00;100347.63;5011323;28;20451;-74
2021/07/18 08:54:46;;;;;;;14.47;9.27;;;;;;;32.99;100.00;100341.72;5011563;28;20718;-76
2021/07/18 08:57:13;;;;;;;10.60;7.50;;;;;;;33.09;100.00;100339.03;5010844;28;20433;-73
2021/07/18 08:59:38;;;;;;;10.17;7.87;;;;;;;33.15;100.00;100331.75;5011513;28;20751;-75
2021/07/18 09:02:05;;;;;;;15.93;9.67;;;;;;;33.06;100.00;100347.75;5011401;28;20844;-74
2021/07/18 09:04:31;;;;;;;13.63;9.00;;;;;;;33.14;100.00;100341.81;5011218;28;20174;-75
2021/07/18 09:07:04;;;;;;;12.03;8.70;;;;;;;33.20;100.00;100337.25;5011276;28;20409;-75
2021/07/18 09:09:31;;;;;;;13.30;8.83;;;;;;;33.30;100.00;100329.13;5010979;28;20942;-75
2021/07/18 09:12:02;;;;;;;18.43;9.40;;;;;;;33.41;100.00;100330.06;5010985;28;20463;-74
2021/07/18 09:14:44;;;;;;;11.87;8.40;;;;;;;33.50;100.00;100339.38;5010924;28;20787;-76
2021/07/18 09:17:12;;;;;;;18.17;9.00;;;;;;;33.62;100.00;100332.59;5010753;28;20417;-75
2021/07/18 09:19:40;;;;;;;13.60;9.00;;;;;;;33.60;100.00;100333.97;5011218;28;20556;-75
2021/07/18 09:22:08;;;;;;;15.10;10.73;;;;;;;33.43;100.00;100325.97;5010781;28;20401;-74
2021/07/18 09:24:43;;;;;;;12.00;9.07;;;;;;;33.56;100.00;100321.97;5010713;28;20401;-74
2021/07/18 09:27:19;;;;;;;15.07;9.80;;;;;;;33.61;100.00;100327.41;5010689;28;20417;-75
2021/07/18 09:29:53;;;;;;;17.80;9.20;;;;;;;33.64;100.00;100330.44;5010902;28;20421;-75
2021/07/18 09:32:22;;;;;;;19.97;9.50;;;;;;;33.72;100.00;100328.31;5010340;28;20477;-76
2021/07/18 09:34:52;;;;;;;17.83;9.90;;;;;;;33.68;100.00;100330.72;5010048;28;20468;-76
2021/07/18 09:37:22;;;;;;;14.17;9.40;;;;;;;33.71;100.00;100334.84;5010424;28;20520;-75
2021/07/18 09:39:57;;;;;;;19.90;8.73;;;;;;;33.73;100.00;100330.75;5010965;28;20487;-76
2021/07/18 09:42:39;;;;;;;16.23;9.10;;;;;;;33.69;100.00;100335.09;5010983;28;20409;-75
2021/07/18 09:45:15;;;;;;;13.67;9.30;;;;;;;33.82;100.00;100333.78;5010520;28;20410;-76
2021/07/18 09:47:53;;;;;;;19.37;9.00;;;;;;;33.82;100.00;100334.59;5010510;28;20902;-77
2021/07/18 09:50:40;;;;;;;13.83;9.57;;;;;;;33.87;100.00;100333.81;5009516;28;20398;-73
2021/07/18 09:53:05;;;;;;;14.90;10.07;;;;;;;33.88;100.00;100349.09;5010331;28;20502;-76
2021/07/18 09:55:31;;;;;;;17.23;10.27;;;;;;;33.82;100.00;100341.97;5010252;28;20820;-77
2021/07/18 09:57:57;;;;;;;13.93;12.43;;;;;;;33.69;100.00;100354.16;5010531;28;20681;-75
2021/07/18 10:00:42;;;;;;;14.77;10.93;;;;;;;33.54;100.00;100354.91;5010574;28;20164;-75
2021/07/18 10:03:22;;;;;;;25.50;11.90;;;;;;;33.48;100.00;100357.84;5011026;28;20202;-77
2021/07/18 10:06:13;;;;;;;18.97;11.90;;;;;;;33.46;100.00;100363.59;5010449;28;20405;-76
2021/07/18 10:08:43;;;;;;;18.50;10.77;;;;;;;33.31;100.00;100358.81;5013517;28;20425;-76
2021/07/18 10:11:10;;;;;;;13.50;10.80;;;;;;;33.44;100.00;100367.66;5014806;28;20759;-76
2021/07/18 10:13:38;;;;;;;17.70;11.40;;;;;;;33.60;100.00;100363.94;5014448;28;20516;-75
2021/07/18 10:16:05;;;;;;;14.67;10.67;;;;;;;33.65;100.00;100366.69;5014326;28;20519;-77
2021/07/18 10:18:31;;;;;;;17.50;11.20;;;;;;;33.58;100.00;100364.22;5014494;28;20448;-75
2021/07/18 10:20:58;;;;;;;18.80;9.93;;;;;;;33.69;100.00;100359.63;5014432;28;20397;-75
2021/07/18 10:23:25;;;;;;;18.20;10.77;;;;;;;34.07;100.00;100357.63;5014533;28;20450;-75
2021/07/18 10:25:52;;;;;;;12.53;10.20;;;;;;;34.61;100.00;100359.97;5014122;28;20397;-76
2021/07/18 10:28:23;;;;;;;16.17;10.00;;;;;;;34.72;100.00;100364.38;5014093;28;20412;-77
2021/07/18 10:30:51;;;;;;;16.63;10.43;;;;;;;34.24;100.00;100360.97;5014103;28;20401;-77
2021/07/18 10:33:20;;;;;;;22.27;11.03;;;;;;;34.12;100.00;100358.47;5013771;28;20449;-77
2021/07/18 10:35:47;;;;;;;18.87;11.07;;;;;;;33.87;100.00;100352.91;5014179;28;20460;-77
2021/07/18 10:38:18;;;;;;;15.70;9.43;;;;;;;33.73;100.00;100360.75;5012801;28;20460;-75
2021/07/18 10:40:52;;;;;;;14.60;10.20;;;;;;;33.61;100.00;100354.66;5013909;28;20416;-76
2021/07/18 10:43:36;;;;;;;19.40;9.17;;;;;;;33.46;100.00;100352.69;5013883;28;20444;-77
2021/07/18 10:46:04;;;;;;;11.87;8.63;;;;;;;33.35;100.00;100349.06;5013931;28;20413;-77
2021/07/18 10:48:44;;;;;;;11.50;9.20;;;;;;;33.42;100.00;100345.31;5013554;28;20453;-75
2021/07/18 10:51:10;;;;;;;12.07;8.47;;;;;;;33.48;100.00;100347.81;5013490;28;20985;-77
2021/07/18 10:53:38;;;;;;;12.00;7.63;;;;;;;33.50;100.00;100350.25;5013517;28;20452;-78
2021/07/18 10:56:04;;;;;;;10.00;7.60;;;;;;;33.55;100.00;100345.63;5013581;28;20445;-76
2021/07/18 10:58:39;;;;;;;9.13;7.03;;;;;;;33.61;100.00;100347.31;5013513;28;20448;-75
2021/07/18 11:01:05;;;;;;;9.40;7.33;;;;;;;33.60;100.00;100344.84;5013971;28;20419;-77
2021/07/18 11:03:35;;;;;;;12.93;7.73;;;;;;;33.62;100.00;100335.31;5013445;28;20409;-77